sensor_id;sensor_type;location;lat;lon;timestamp;pressure;altitude;pressure_sealevel;temperature;humidity
78149;BME280;67396;42.664;23.382;2023-05-10T00:01:25;95240.78;;;8.75;79.47
78149;BME280;67396;42.664;23.382;2023-05-10T00:03:51;95233.00;;;8.77;80.00
78149;BME280;67396;42.664;23.382;2023-05-10T00:06:20;95234.63;;;8.81;79.25
78149;BME280;67396;42.664;23.382;2023-05-10T00:08:45;95235.88;;;8.84;79.49
78149;BME280;67396;42.664;23.382;2023-05-10T00:11:14;95238.50;;;8.77;79.09
78149;BME280;67396;42.664;23.382;2023-05-10T00:13:44;95225.50;;;8.70;79.57
78149;BME280;67396;42.664;23.382;2023-05-10T00:16:16;95219.59;;;8.68;78.79
78149;BME280;67396;42.664;23.382;2023-05-10T00:18:44;95218.81;;;8.71;78.93
78149;BME280;67396;42.664;23.382;2023-05-10T00:21:12;95221.63;;;8.75;79.65
78149;BME280;67396;42.664;23.382;2023-05-10T00:23:38;95217.50;;;8.84;79.23
78149;BME280;67396;42.664;23.382;2023-05-10T00:26:03;95229.53;;;8.80;78.42
78149;BME280;67396;42.664;23.382;2023-05-10T00:28:32;95208.84;;;8.82;78.98
78149;BME280;67396;42.664;23.382;2023-05-10T00:31:00;95216.63;;;8.80;79.14
78149;BME280;67396;42.664;23.382;2023-05-10T00:33:25;95217.38;;;8.77;78.46
78149;BME280;67396;42.664;23.382;2023-05-10T00:35:51;95213.44;;;8.75;79.10
78149;BME280;67396;42.664;23.382;2023-05-10T00:38:24;95214.91;;;8.68;79.02
78149;BME280;67396;42.664;23.382;2023-05-10T00:40:49;95214.03;;;8.64;79.27
78149;BME280;67396;42.664;23.382;2023-05-10T00:43:18;95211.72;;;8.66;79.53
78149;BME280;67396;42.664;23.382;2023-05-10T00:45:46;95203.19;;;8.72;79.51
78149;BME280;67396;42.664;23.382;2023-05-10T00:48:12;95207.16;;;8.74;78.77
78149;BME280;67396;42.664;23.382;2023-05-10T00:50:41;95203.19;;;8.72;78.95
78149;BME280;67396;42.664;23.382;2023-05-10T00:53:07;95204.44;;;8.74;78.67
78149;BME280;67396;42.664;23.382;2023-05-10T00:55:33;95200.91;;;8.74;78.68
78149;BME280;67396;42.664;23.382;2023-05-10T00:57:58;95204.53;;;8.81;78.87
78149;BME280;67396;42.664;23.382;2023-05-10T01:00:24;95203.28;;;8.75;79.17
78149;BME280;67396;42.664;23.382;2023-05-10T01:02:50;95204.50;;;8.78;78.56
78149;BME280;67396;42.664;23.382;2023-05-10T01:05:17;95200.19;;;8.77;78.32
78149;BME280;67396;42.664;23.382;2023-05-10T01:07:45;95210.78;;;8.82;78.76
78149;BME280;67396;42.664;23.382;2023-05-10T01:10:11;95206.34;;;8.70;77.49
78149;BME280;67396;42.664;23.382;2023-05-10T01:12:38;95199.88;;;8.59;78.24
78149;BME280;67396;42.664;23.382;2023-05-10T01:15:07;95197.16;;;8.59;78.34
78149;BME280;67396;42.664;23.382;2023-05-10T01:17:35;95195.25;;;8.63;77.81
78149;BME280;67396;42.664;23.382;2023-05-10T01:20:03;95186.22;;;8.59;78.43
78149;BME280;67396;42.664;23.382;2023-05-10T01:30:48;95185.41;;;8.58;78.01
78149;BME280;67396;42.664;23.382;2023-05-10T01:38:38;95182.44;;;8.67;76.74
78149;BME280;67396;42.664;23.382;2023-05-10T01:41:40;95179.38;;;8.72;77.04
78149;BME280;67396;42.664;23.382;2023-05-10T01:44:34;95181.38;;;8.75;77.10
78149;BME280;67396;42.664;23.382;2023-05-10T01:47:09;95172.84;;;8.80;76.90
78149;BME280;67396;42.664;23.382;2023-05-10T01:49:53;95175.19;;;8.78;76.35
78149;BME280;67396;42.664;23.382;2023-05-10T01:52:26;95168.47;;;8.76;76.79
78149;BME280;67396;42.664;23.382;2023-05-10T01:55:09;95173.50;;;8.70;76.42
78149;BME280;67396;42.664;23.382;2023-05-10T01:57:51;95168.69;;;8.63;75.45
78149;BME280;67396;42.664;23.382;2023-05-10T02:00:32;95175.16;;;8.52;75.23
78149;BME280;67396;42.664;23.382;2023-05-10T02:03:04;95177.28;;;8.39;75.84
78149;BME280;67396;42.664;23.382;2023-05-10T02:05:36;95176.00;;;8.33;75.11
78149;BME280;67396;42.664;23.382;2023-05-10T02:08:07;95175.91;;;8.07;76.71
78149;BME280;67396;42.664;23.382;2023-05-10T02:10:39;95179.34;;;8.04;76.85
78149;BME280;67396;42.664;23.382;2023-05-10T02:13:05;95180.94;;;8.05;77.90
78149;BME280;67396;42.664;23.382;2023-05-10T02:15:33;95185.84;;;7.96;77.14
78149;BME280;67396;42.664;23.382;2023-05-10T02:18:02;95183.41;;;7.90;77.06
78149;BME280;67396;42.664;23.382;2023-05-10T02:20:33;95181.88;;;7.93;75.34
78149;BME280;67396;42.664;23.382;2023-05-10T02:23:00;95179.34;;;7.81;75.99
78149;BME280;67396;42.664;23.382;2023-05-10T02:25:28;95190.50;;;7.72;76.05
78149;BME280;67396;42.664;23.382;2023-05-10T02:27:56;95185.03;;;7.53;74.48
78149;BME280;67396;42.664;23.382;2023-05-10T02:30:26;95187.25;;;7.47;75.40
78149;BME280;67396;42.664;23.382;2023-05-10T02:32:52;95194.56;;;7.43;74.98
78149;BME280;67396;42.664;23.382;2023-05-10T02:35:18;95196.38;;;7.36;75.97
78149;BME280;67396;42.664;23.382;2023-05-10T02:37:45;95192.06;;;7.54;75.17
78149;BME280;67396;42.664;23.382;2023-05-10T02:40:12;95187.75;;;7.53;74.46
78149;BME280;67396;42.664;23.382;2023-05-10T02:42:41;95193.22;;;7.53;75.09
78149;BME280;67396;42.664;23.382;2023-05-10T02:45:11;95185.31;;;7.29;72.36
78149;BME280;67396;42.664;23.382;2023-05-10T02:47:37;95189.47;;;7.42;73.57
78149;BME280;67396;42.664;23.382;2023-05-10T02:50:03;95185.06;;;7.18;73.16
78149;BME280;67396;42.664;23.382;2023-05-10T02:52:34;95186.66;;;7.19;72.89
78149;BME280;67396;42.664;23.382;2023-05-10T02:55:02;95182.91;;;7.08;72.12
78149;BME280;67396;42.664;23.382;2023-05-10T02:57:34;95184.28;;;7.17;73.25
78149;BME280;67396;42.664;23.382;2023-05-10T03:00:01;95179.63;;;7.37;72.64
78149;BME280;67396;42.664;23.382;2023-05-10T03:02:28;95180.44;;;7.38;72.26
78149;BME280;67396;42.664;23.382;2023-05-10T03:04:55;95191.81;;;7.24;72.50
78149;BME280;67396;42.664;23.382;2023-05-10T03:07:21;95186.38;;;7.24;72.90
78149;BME280;67396;42.664;23.382;2023-05-10T03:09:48;95184.53;;;7.28;73.77
78149;BME280;67396;42.664;23.382;2023-05-10T03:18:13;95191.28;;;7.34;72.45
78149;BME280;67396;42.664;23.382;2023-05-10T03:20:47;95190.47;;;7.34;72.43
78149;BME280;67396;42.664;23.382;2023-05-10T03:23:27;95190.34;;;7.46;72.82
78149;BME280;67396;42.664;23.382;2023-05-10T03:25:55;95197.41;;;7.47;72.50
78149;BME280;67396;42.664;23.382;2023-05-10T03:28:21;95199.91;;;7.55;71.79
78149;BME280;67396;42.664;23.382;2023-05-10T03:30:55;95197.97;;;7.56;69.33
78149;BME280;67396;42.664;23.382;2023-05-10T03:33:24;95194.84;;;7.57;69.64
78149;BME280;67396;42.664;23.382;2023-05-10T03:35:52;95193.06;;;7.46;69.08
78149;BME280;67396;42.664;23.382;2023-05-10T03:38:17;95195.47;;;7.47;69.63
78149;BME280;67396;42.664;23.382;2023-05-10T03:40:43;95200.13;;;7.47;69.09
78149;BME280;67396;42.664;23.382;2023-05-10T03:43:08;95207.09;;;7.44;69.01
78149;BME280;67396;42.664;23.382;2023-05-10T03:45:34;95203.13;;;7.42;69.41
78149;BME280;67396;42.664;23.382;2023-05-10T03:47:59;95196.72;;;7.34;69.19
78149;BME280;67396;42.664;23.382;2023-05-10T03:50:28;95212.16;;;7.27;68.75
78149;BME280;67396;42.664;23.382;2023-05-10T03:52:56;95202.84;;;7.28;69.27
78149;BME280;67396;42.664;23.382;2023-05-10T03:55:23;95209.94;;;7.32;69.47
78149;BME280;67396;42.664;23.382;2023-05-10T03:57:51;95212.63;;;7.29;69.44
78149;BME280;67396;42.664;23.382;2023-05-10T04:00:19;95197.16;;;7.36;68.90
78149;BME280;67396;42.664;23.382;2023-05-10T04:02:44;95204.28;;;7.41;68.29
78149;BME280;67396;42.664;23.382;2023-05-10T04:05:10;95217.94;;;7.41;68.29
78149;BME280;67396;42.664;23.382;2023-05-10T04:07:35;95210.53;;;7.41;68.47
78149;BME280;67396;42.664;23.382;2023-05-10T04:10:01;95205.16;;;7.45;69.42
78149;BME280;67396;42.664;23.382;2023-05-10T04:12:26;95223.47;;;7.44;68.99
78149;BME280;67396;42.664;23.382;2023-05-10T04:14:52;95223.31;;;7.37;69.08
78149;BME280;67396;42.664;23.382;2023-05-10T04:17:17;95214.69;;;7.35;68.85
78149;BME280;67396;42.664;23.382;2023-05-10T04:19:43;95228.19;;;7.28;69.92
78149;BME280;67396;42.664;23.382;2023-05-10T04:22:08;95216.13;;;7.29;70.06
78149;BME280;67396;42.664;23.382;2023-05-10T04:24:34;95223.09;;;7.27;70.63
78149;BME280;67396;42.664;23.382;2023-05-10T04:26:59;95223.25;;;7.34;70.94
78149;BME280;67396;42.664;23.382;2023-05-10T04:29:27;95222.94;;;7.20;71.08
78149;BME280;67396;42.664;23.382;2023-05-10T04:31:56;95225.47;;;7.28;71.35
78149;BME280;67396;42.664;23.382;2023-05-10T04:34:21;95223.53;;;7.29;71.01
78149;BME280;67396;42.664;23.382;2023-05-10T04:36:47;95223.69;;;7.36;71.18
78149;BME280;67396;42.664;23.382;2023-05-10T04:39:13;95220.22;;;7.39;70.43
78149;BME280;67396;42.664;23.382;2023-05-10T04:41:39;95221.09;;;7.43;69.50
78149;BME280;67396;42.664;23.382;2023-05-10T04:44:04;95214.19;;;7.49;69.77
78149;BME280;67396;42.664;23.382;2023-05-10T04:46:30;95234.47;;;7.48;70.17
78149;BME280;67396;42.664;23.382;2023-05-10T04:48:55;95221.97;;;7.47;70.33
78149;BME280;67396;42.664;23.382;2023-05-10T04:51:20;95225.06;;;7.45;70.34
78149;BME280;67396;42.664;23.382;2023-05-10T04:53:46;95231.47;;;7.53;71.14
78149;BME280;67396;42.664;23.382;2023-05-10T04:56:11;95226.66;;;7.46;69.67
78149;BME280;67396;42.664;23.382;2023-05-10T04:58:36;95218.81;;;7.45;70.85
78149;BME280;67396;42.664;23.382;2023-05-10T05:01:06;95217.69;;;7.30;71.13
78149;BME280;67396;42.664;23.382;2023-05-10T05:03:32;95223.53;;;7.48;71.46
78149;BME280;67396;42.664;23.382;2023-05-10T05:05:58;95227.72;;;7.61;70.58
78149;BME280;67396;42.664;23.382;2023-05-10T05:08:24;95219.31;;;7.50;69.63
78149;BME280;67396;42.664;23.382;2023-05-10T05:10:49;95221.97;;;7.47;70.87
78149;BME280;67396;42.664;23.382;2023-05-10T05:13:15;95223.41;;;7.60;70.48
78149;BME280;67396;42.664;23.382;2023-05-10T05:15:40;95236.06;;;7.68;69.80
78149;BME280;67396;42.664;23.382;2023-05-10T05:18:06;95227.38;;;7.63;69.63
78149;BME280;67396;42.664;23.382;2023-05-10T05:20:32;95228.16;;;7.63;69.83
78149;BME280;67396;42.664;23.382;2023-05-10T05:22:59;95229.31;;;7.62;70.85
78149;BME280;67396;42.664;23.382;2023-05-10T05:25:24;95229.31;;;7.62;70.60
78149;BME280;67396;42.664;23.382;2023-05-10T05:27:50;95229.53;;;7.73;70.39
78149;BME280;67396;42.664;23.382;2023-05-10T05:30:23;95239.66;;;7.72;70.64
78149;BME280;67396;42.664;23.382;2023-05-10T05:32:51;95234.63;;;7.74;70.31
78149;BME280;67396;42.664;23.382;2023-05-10T05:35:17;95230.25;;;7.70;70.47
78149;BME280;67396;42.664;23.382;2023-05-10T05:37:46;95249.72;;;7.68;70.83
78149;BME280;67396;42.664;23.382;2023-05-10T05:40:14;95248.69;;;7.57;70.91
78149;BME280;67396;42.664;23.382;2023-05-10T05:42:40;95246.91;;;7.45;71.20
78149;BME280;67396;42.664;23.382;2023-05-10T05:45:06;95242.16;;;7.42;71.76
78149;BME280;67396;42.664;23.382;2023-05-10T05:47:34;95251.94;;;7.43;71.19
78149;BME280;67396;42.664;23.382;2023-05-10T05:49:59;95249.28;;;7.47;71.26
78149;BME280;67396;42.664;23.382;2023-05-10T05:52:25;95250.09;;;7.47;70.80
78149;BME280;67396;42.664;23.382;2023-05-10T05:54:51;95241.50;;;7.49;71.68
78149;BME280;67396;42.664;23.382;2023-05-10T05:57:19;95266.09;;;7.49;71.19
78149;BME280;67396;42.664;23.382;2023-05-10T05:59:45;95253.00;;;7.39;71.98
78149;BME280;67396;42.664;23.382;2023-05-10T06:02:11;95253.19;;;7.30;73.00
78149;BME280;67396;42.664;23.382;2023-05-10T06:04:36;95240.06;;;7.36;72.61
78149;BME280;67396;42.664;23.382;2023-05-10T06:07:02;95259.34;;;7.43;72.00
78149;BME280;67396;42.664;23.382;2023-05-10T06:09:30;95253.88;;;7.43;72.42
78149;BME280;67396;42.664;23.382;2023-05-10T06:11:58;95249.28;;;7.47;72.95
78149;BME280;67396;42.664;23.382;2023-05-10T06:14:32;95257.97;;;7.52;71.80
78149;BME280;67396;42.664;23.382;2023-05-10T06:16:57;95256.41;;;7.51;71.70
78149;BME280;67396;42.664;23.382;2023-05-10T06:19:24;95253.31;;;7.53;71.95
78149;BME280;67396;42.664;23.382;2023-05-10T06:21:51;95270.50;;;7.53;71.36
78149;BME280;67396;42.664;23.382;2023-05-10T06:24:17;95258.06;;;7.56;71.56
78149;BME280;67396;42.664;23.382;2023-05-10T06:26:53;95265.97;;;7.61;70.18
78149;BME280;67396;42.664;23.382;2023-05-10T06:29:22;95263.16;;;7.57;70.23
78149;BME280;67396;42.664;23.382;2023-05-10T06:31:50;95272.22;;;7.62;69.62
78149;BME280;67396;42.664;23.382;2023-05-10T06:34:16;95270.94;;;7.55;68.97
78149;BME280;67396;42.664;23.382;2023-05-10T06:36:44;95267.56;;;7.27;69.90
78149;BME280;67396;42.664;23.382;2023-05-10T06:39:09;95278.53;;;7.11;72.23
78149;BME280;67396;42.664;23.382;2023-05-10T06:41:36;95265.41;;;7.01;72.60
78149;BME280;67396;42.664;23.382;2023-05-10T06:44:02;95277.91;;;6.87;72.55
78149;BME280;67396;42.664;23.382;2023-05-10T06:46:28;95262.09;;;6.92;73.27
78149;BME280;67396;42.664;23.382;2023-05-10T06:48:54;95258.66;;;6.79;74.10
78149;BME280;67396;42.664;23.382;2023-05-10T06:51:19;95265.00;;;6.84;74.25
78149;BME280;67396;42.664;23.382;2023-05-10T06:53:46;95279.84;;;6.86;73.24
78149;BME280;67396;42.664;23.382;2023-05-10T06:56:11;95269.13;;;6.93;72.60
78149;BME280;67396;42.664;23.382;2023-05-10T06:58:37;95271.41;;;6.91;73.33
78149;BME280;67396;42.664;23.382;2023-05-10T07:01:04;95266.41;;;6.93;72.39
78149;BME280;67396;42.664;23.382;2023-05-10T07:03:30;95267.53;;;6.92;72.86
78149;BME280;67396;42.664;23.382;2023-05-10T07:06:03;95272.81;;;7.01;72.54
78149;BME280;67396;42.664;23.382;2023-05-10T07:08:31;95271.56;;;6.98;72.56
78149;BME280;67396;42.664;23.382;2023-05-10T07:11:04;95282.84;;;6.97;71.06
78149;BME280;67396;42.664;23.382;2023-05-10T07:13:34;95269.19;;;6.97;71.35
78149;BME280;67396;42.664;23.382;2023-05-10T07:16:00;95275.00;;;6.95;71.83
78149;BME280;67396;42.664;23.382;2023-05-10T07:18:27;95277.81;;;6.99;72.18
78149;BME280;67396;42.664;23.382;2023-05-10T07:20:52;95270.09;;;7.01;71.75
78149;BME280;67396;42.664;23.382;2023-05-10T07:23:18;95274.47;;;7.05;70.82
78149;BME280;67396;42.664;23.382;2023-05-10T07:25:50;95278.53;;;7.11;71.50
78149;BME280;67396;42.664;23.382;2023-05-10T07:28:19;95280.38;;;7.07;71.48
78149;BME280;67396;42.664;23.382;2023-05-10T07:30:53;95278.94;;;7.13;70.52
78149;BME280;67396;42.664;23.382;2023-05-10T07:33:19;95288.28;;;7.12;70.11
78149;BME280;67396;42.664;23.382;2023-05-10T07:35:44;95276.41;;;7.21;69.85
78149;BME280;67396;42.664;23.382;2023-05-10T07:38:09;95287.72;;;7.23;69.50
78149;BME280;67396;42.664;23.382;2023-05-10T07:40:36;95296.31;;;7.21;69.97
78149;BME280;67396;42.664;23.382;2023-05-10T07:43:01;95290.22;;;7.28;70.23
78149;BME280;67396;42.664;23.382;2023-05-10T07:45:27;95297.59;;;7.27;70.67
78149;BME280;67396;42.664;23.382;2023-05-10T07:47:53;95287.19;;;7.33;69.85
78149;BME280;67396;42.664;23.382;2023-05-10T07:50:18;95297.31;;;7.32;69.74
78149;BME280;67396;42.664;23.382;2023-05-10T07:52:44;95289.06;;;7.29;69.81
78149;BME280;67396;42.664;23.382;2023-05-10T07:55:10;95283.16;;;7.27;70.35
78149;BME280;67396;42.664;23.382;2023-05-10T07:57:35;95286.75;;;7.31;69.92
78149;BME280;67396;42.664;23.382;2023-05-10T08:00:02;95291.22;;;7.39;69.22
78149;BME280;67396;42.664;23.382;2023-05-10T08:02:27;95297.91;;;7.41;69.59
78149;BME280;67396;42.664;23.382;2023-05-10T08:04:53;95289.66;;;7.38;69.00
78149;BME280;67396;42.664;23.382;2023-05-10T08:07:18;95293.53;;;7.37;69.64
78149;BME280;67396;42.664;23.382;2023-05-10T08:09:44;95301.19;;;7.31;69.52
78149;BME280;67396;42.664;23.382;2023-05-10T08:12:10;95300.50;;;7.34;69.59
78149;BME280;67396;42.664;23.382;2023-05-10T08:14:35;95299.94;;;7.44;69.62
78149;BME280;67396;42.664;23.382;2023-05-10T08:17:04;95295.72;;;7.66;68.56
78149;BME280;67396;42.664;23.382;2023-05-10T08:19:29;95303.91;;;7.47;68.77
78149;BME280;67396;42.664;23.382;2023-05-10T08:21:54;95299.97;;;7.29;70.24
78149;BME280;67396;42.664;23.382;2023-05-10T08:24:23;95299.06;;;7.40;69.48
78149;BME280;67396;42.664;23.382;2023-05-10T08:26:48;95306.19;;;7.45;69.89
78149;BME280;67396;42.664;23.382;2023-05-10T08:29:15;95301.19;;;7.66;69.50
78149;BME280;67396;42.664;23.382;2023-05-10T08:31:40;95297.47;;;7.55;68.56
78149;BME280;67396;42.664;23.382;2023-05-10T08:34:05;95295.31;;;7.13;70.81
78149;BME280;67396;42.664;23.382;2023-05-10T08:36:31;95306.50;;;7.24;71.31
78149;BME280;67396;42.664;23.382;2023-05-10T08:38:57;95299.34;;;7.35;70.46
78149;BME280;67396;42.664;23.382;2023-05-10T08:41:23;95305.66;;;7.55;70.43
78149;BME280;67396;42.664;23.382;2023-05-10T08:43:52;95306.75;;;7.70;69.48
78149;BME280;67396;42.664;23.382;2023-05-10T08:46:20;95309.03;;;7.68;69.67
78149;BME280;67396;42.664;23.382;2023-05-10T08:48:48;95293.84;;;7.51;71.79
78149;BME280;67396;42.664;23.382;2023-05-10T08:51:24;95309.09;;;7.52;70.92
78149;BME280;67396;42.664;23.382;2023-05-10T08:53:52;95308.19;;;7.64;70.41
78149;BME280;67396;42.664;23.382;2023-05-10T08:56:20;95308.47;;;7.78;69.76
78149;BME280;67396;42.664;23.382;2023-05-10T08:58:50;95297.47;;;7.93;69.86
78149;BME280;67396;42.664;23.382;2023-05-10T09:01:16;95306.41;;;7.90;69.37
78149;BME280;67396;42.664;23.382;2023-05-10T09:03:43;95309.00;;;8.03;69.40
78149;BME280;67396;42.664;23.382;2023-05-10T09:06:12;95300.91;;;8.10;69.67
78149;BME280;67396;42.664;23.382;2023-05-10T09:08:38;95303.97;;;8.24;68.36
78149;BME280;67396;42.664;23.382;2023-05-10T09:11:05;95325.38;;;8.22;68.67
78149;BME280;67396;42.664;23.382;2023-05-10T09:13:30;95300.34;;;8.20;69.01
78149;BME280;67396;42.664;23.382;2023-05-10T09:15:57;95299.63;;;8.23;67.65
78149;BME280;67396;42.664;23.382;2023-05-10T09:18:28;95297.19;;;8.18;67.44
78149;BME280;67396;42.664;23.382;2023-05-10T09:20:55;95297.03;;;8.30;68.02
78149;BME280;67396;42.664;23.382;2023-05-10T09:23:21;95296.19;;;8.26;68.35
78149;BME280;67396;42.664;23.382;2023-05-10T09:25:49;95285.66;;;8.28;68.73
78149;BME280;67396;42.664;23.382;2023-05-10T09:28:31;95295.56;;;8.33;69.52
78149;BME280;67396;42.664;23.382;2023-05-10T09:30:57;95287.16;;;8.45;69.45
78149;BME280;67396;42.664;23.382;2023-05-10T09:33:25;95290.09;;;8.55;69.62
78149;BME280;67396;42.664;23.382;2023-05-10T09:35:52;95281.84;;;8.52;68.69
78149;BME280;67396;42.664;23.382;2023-05-10T09:38:17;95281.91;;;8.55;69.18
78149;BME280;67396;42.664;23.382;2023-05-10T09:40:51;95280.22;;;8.70;68.93
78149;BME280;67396;42.664;23.382;2023-05-10T09:43:19;95285.94;;;8.84;67.89
78149;BME280;67396;42.664;23.382;2023-05-10T09:45:47;95288.97;;;8.79;67.79
78149;BME280;67396;42.664;23.382;2023-05-10T09:48:13;95289.09;;;8.86;66.94
78149;BME280;67396;42.664;23.382;2023-05-10T09:50:39;95288.09;;;8.98;66.63
78149;BME280;67396;42.664;23.382;2023-05-10T09:53:05;95284.28;;;9.02;66.49
78149;BME280;67396;42.664;23.382;2023-05-10T09:55:46;95267.94;;;9.10;66.81
78149;BME280;67396;42.664;23.382;2023-05-10T09:58:14;95272.22;;;9.07;66.54
78149;BME280;67396;42.664;23.382;2023-05-10T10:00:44;95269.59;;;9.14;66.34
78149;BME280;67396;42.664;23.382;2023-05-10T10:03:20;95269.59;;;9.14;64.51
78149;BME280;67396;42.664;23.382;2023-05-10T10:05:48;95279.81;;;9.17;65.55
78149;BME280;67396;42.664;23.382;2023-05-10T10:08:15;95271.00;;;8.82;65.38
78149;BME280;67396;42.664;23.382;2023-05-10T10:10:41;95267.66;;;8.92;65.01
78149;BME280;67396;42.664;23.382;2023-05-10T10:13:10;95261.72;;;8.86;65.83
78149;BME280;67396;42.664;23.382;2023-05-10T10:15:35;95268.28;;;8.82;66.24
78149;BME280;67396;42.664;23.382;2023-05-10T10:18:01;95266.16;;;8.72;65.45
78149;BME280;67396;42.664;23.382;2023-05-10T10:20:29;95260.94;;;8.86;66.16
78149;BME280;67396;42.664;23.382;2023-05-10T10:22:54;95244.88;;;8.84;65.48
78149;BME280;67396;42.664;23.382;2023-05-10T10:25:20;95258.78;;;8.98;65.65
78149;BME280;67396;42.664;23.382;2023-05-10T10:35:43;95269.94;;;8.86;65.31
78149;BME280;67396;42.664;23.382;2023-05-10T10:38:12;95257.50;;;8.92;65.71
78149;BME280;67396;42.664;23.382;2023-05-10T10:40:38;95253.72;;;9.00;65.39
78149;BME280;67396;42.664;23.382;2023-05-10T10:43:26;95263.09;;;8.99;65.13
78149;BME280;67396;42.664;23.382;2023-05-10T10:46:17;95254.50;;;9.01;65.16
78149;BME280;67396;42.664;23.382;2023-05-10T10:49:08;95245.88;;;8.99;66.21
78149;BME280;67396;42.664;23.382;2023-05-10T10:51:37;95249.47;;;9.03;66.77
78149;BME280;67396;42.664;23.382;2023-05-10T10:54:10;95251.34;;;8.99;66.13
78149;BME280;67396;42.664;23.382;2023-05-10T10:56:38;95254.50;;;9.01;65.96
78149;BME280;67396;42.664;23.382;2023-05-10T10:59:03;95248.41;;;9.11;65.92
78149;BME280;67396;42.664;23.382;2023-05-10T11:01:33;95253.28;;;9.21;66.51
78149;BME280;67396;42.664;23.382;2023-05-10T11:06:34;95261.78;;;9.16;66.37
78149;BME280;67396;42.664;23.382;2023-05-10T11:09:10;95254.78;;;9.19;66.13
78149;BME280;67396;42.664;23.382;2023-05-10T11:11:48;95252.84;;;9.19;66.68
78149;BME280;67396;42.664;23.382;2023-05-10T11:14:20;95247.00;;;9.21;67.00
78149;BME280;67396;42.664;23.382;2023-05-10T11:16:46;95249.41;;;9.26;67.18
78149;BME280;67396;42.664;23.382;2023-05-10T11:19:13;95262.00;;;9.30;66.15
78149;BME280;67396;42.664;23.382;2023-05-10T11:21:48;95250.78;;;9.39;67.21
78149;BME280;67396;42.664;23.382;2023-05-10T11:24:19;95242.22;;;9.40;66.25
78149;BME280;67396;42.664;23.382;2023-05-10T11:26:46;95253.81;;;9.30;66.58
78149;BME280;67396;42.664;23.382;2023-05-10T11:29:15;95269.59;;;9.40;66.23
78149;BME280;67396;42.664;23.382;2023-05-10T11:31:44;95260.41;;;9.56;65.84
78149;BME280;67396;42.664;23.382;2023-05-10T11:34:10;95249.72;;;9.47;66.12
78149;BME280;67396;42.664;23.382;2023-05-10T11:36:36;95257.47;;;9.41;66.32
78149;BME280;67396;42.664;23.382;2023-05-10T11:39:03;95257.09;;;9.43;66.11
78149;BME280;67396;42.664;23.382;2023-05-10T11:41:30;95260.41;;;9.56;65.49
78149;BME280;67396;42.664;23.382;2023-05-10T11:43:56;95251.44;;;9.59;64.87
78149;BME280;67396;42.664;23.382;2023-05-10T11:46:26;95253.69;;;9.50;65.24
78149;BME280;67396;42.664;23.382;2023-05-10T11:49:00;95254.66;;;9.64;65.65
78149;BME280;67396;42.664;23.382;2023-05-10T11:51:27;95258.28;;;9.72;65.57
78149;BME280;67396;42.664;23.382;2023-05-10T11:53:54;95252.19;;;9.86;64.18
78149;BME280;67396;42.664;23.382;2023-05-10T11:56:20;95261.09;;;9.79;64.20
78149;BME280;67396;42.664;23.382;2023-05-10T11:58:52;95252.38;;;9.70;65.31
78149;BME280;67396;42.664;23.382;2023-05-10T12:01:18;95249.09;;;9.57;65.94
78149;BME280;67396;42.664;23.382;2023-05-10T12:03:43;95256.78;;;9.48;66.41
78149;BME280;67396;42.664;23.382;2023-05-10T12:06:09;95243.25;;;9.32;66.60
78149;BME280;67396;42.664;23.382;2023-05-10T12:08:34;95240.09;;;9.30;66.88
78149;BME280;67396;42.664;23.382;2023-05-10T12:11:07;95239.69;;;9.28;67.12
78149;BME280;67396;42.664;23.382;2023-05-10T12:13:39;95240.28;;;9.44;67.66
78149;BME280;67396;42.664;23.382;2023-05-10T12:16:13;95232.78;;;9.38;67.07
78149;BME280;67396;42.664;23.382;2023-05-10T12:18:40;95241.09;;;9.45;67.04
78149;BME280;67396;42.664;23.382;2023-05-10T12:21:06;95224.72;;;9.52;66.64
78149;BME280;67396;42.664;23.382;2023-05-10T12:23:32;95234.16;;;9.55;66.11
78149;BME280;67396;42.664;23.382;2023-05-10T12:26:12;95236.81;;;9.48;66.65
78149;BME280;67396;42.664;23.382;2023-05-10T12:28:38;95229.13;;;9.57;66.48
78149;BME280;67396;42.664;23.382;2023-05-10T12:31:05;95225.59;;;9.60;65.79
78149;BME280;67396;42.664;23.382;2023-05-10T12:33:42;95227.69;;;9.66;65.94
78149;BME280;67396;42.664;23.382;2023-05-10T12:36:12;95228.41;;;9.63;65.89
78149;BME280;67396;42.664;23.382;2023-05-10T12:38:41;95222.13;;;9.63;65.97
78149;BME280;67396;42.664;23.382;2023-05-10T12:41:12;95220.25;;;9.67;65.93
78149;BME280;67396;42.664;23.382;2023-05-10T12:43:39;95227.75;;;9.73;65.57
78149;BME280;67396;42.664;23.382;2023-05-10T12:46:14;95216.16;;;9.84;65.76
78149;BME280;67396;42.664;23.382;2023-05-10T12:48:41;95225.16;;;9.84;65.29
78149;BME280;67396;42.664;23.382;2023-05-10T12:51:07;95222.78;;;9.82;64.97
78149;BME280;67396;42.664;23.382;2023-05-10T12:53:41;95219.13;;;9.71;65.25
78149;BME280;67396;42.664;23.382;2023-05-10T12:56:07;95215.56;;;9.67;65.06
78149;BME280;67396;42.664;23.382;2023-05-10T12:58:32;95208.00;;;9.61;65.51
78149;BME280;67396;42.664;23.382;2023-05-10T13:00:58;95217.88;;;9.65;65.45
78149;BME280;67396;42.664;23.382;2023-05-10T13:03:24;95206.81;;;9.58;65.28
78149;BME280;67396;42.664;23.382;2023-05-10T13:05:49;95202.63;;;9.68;65.37
78149;BME280;67396;42.664;23.382;2023-05-10T13:08:15;95203.53;;;9.79;64.76
78149;BME280;67396;42.664;23.382;2023-05-10T13:10:40;95202.81;;;9.82;64.87
78149;BME280;67396;42.664;23.382;2023-05-10T13:13:06;95205.19;;;9.84;64.49
78149;BME280;67396;42.664;23.382;2023-05-10T13:15:32;95208.59;;;9.77;64.99
78149;BME280;67396;42.664;23.382;2023-05-10T13:17:57;95204.38;;;9.83;64.55
78149;BME280;67396;42.664;23.382;2023-05-10T13:20:24;95195.31;;;9.79;65.09
78149;BME280;67396;42.664;23.382;2023-05-10T13:22:50;95196.47;;;9.78;64.66
78149;BME280;67396;42.664;23.382;2023-05-10T13:25:15;95193.78;;;9.81;64.80
78149;BME280;67396;42.664;23.382;2023-05-10T13:27:41;95191.84;;;9.82;64.99
78149;BME280;67396;42.664;23.382;2023-05-10T13:30:08;95194.59;;;9.86;64.93
78149;BME280;67396;42.664;23.382;2023-05-10T13:32:35;95191.53;;;9.91;64.46
78149;BME280;67396;42.664;23.382;2023-05-10T13:35:01;95192.75;;;9.93;64.83